sensor_id;sensor_type;location;lat;lon;timestamp;P1;durP1;ratioP1;P2;durP2;ratioP2
21905;SDS011;11117;48.644;9.006;2024-02-16T00:02:10;6.93;;;4.17;;
21905;SDS011;11117;48.644;9.006;2024-02-16T00:04:35;8.47;;;4.50;;
21905;SDS011;11117;48.644;9.006;2024-02-16T00:07:01;6.80;;;4.00;;
21905;SDS011;11117;48.644;9.006;2024-02-16T00:09:26;7.67;;;4.27;;
21905;SDS011;11117;48.644;9.006;2024-02-16T00:11:52;9.00;;;4.07;;
21905;SDS011;11117;48.644;9.006;2024-02-16T00:14:18;8.00;;;3.80;;
21905;SDS011;11117;48.644;9.006;2024-02-16T00:16:43;8.07;;;3.50;;
21905;SDS011;11117;48.644;9.006;2024-02-16T00:19:09;6.63;;;3.63;;
21905;SDS011;11117;48.644;9.006;2024-02-16T00:21:34;5.60;;;3.80;;
21905;SDS011;11117;48.644;9.006;2024-02-16T00:24:00;7.27;;;4.80;;
21905;SDS011;11117;48.644;9.006;2024-02-16T00:26:25;7.20;;;3.43;;
21905;SDS011;11117;48.644;9.006;2024-02-16T00:28:51;9.77;;;3.60;;
21905;SDS011;11117;48.644;9.006;2024-02-16T00:31:16;5.87;;;3.70;;
21905;SDS011;11117;48.644;9.006;2024-02-16T00:33:42;6.37;;;3.73;;
21905;SDS011;11117;48.644;9.006;2024-02-16T00:36:07;5.93;;;3.23;;
21905;SDS011;11117;48.644;9.006;2024-02-16T00:38:33;5.83;;;3.60;;
21905;SDS011;11117;48.644;9.006;2024-02-16T00:41:01;6.87;;;3.60;;
21905;SDS011;11117;48.644;9.006;2024-02-16T00:43:27;5.70;;;3.27;;
21905;SDS011;11117;48.644;9.006;2024-02-16T00:45:52;8.47;;;3.40;;
21905;SDS011;11117;48.644;9.006;2024-02-16T00:48:18;4.63;;;3.23;;
21905;SDS011;11117;48.644;9.006;2024-02-16T00:50:43;6.77;;;3.37;;
21905;SDS011;11117;48.644;9.006;2024-02-16T00:53:09;6.03;;;3.43;;
21905;SDS011;11117;48.644;9.006;2024-02-16T00:55:35;6.20;;;3.40;;
21905;SDS011;11117;48.644;9.006;2024-02-16T00:58:00;6.00;;;3.07;;
21905;SDS011;11117;48.644;9.006;2024-02-16T01:00:26;4.30;;;2.83;;
21905;SDS011;11117;48.644;9.006;2024-02-16T01:02:51;8.70;;;3.43;;
21905;SDS011;11117;48.644;9.006;2024-02-16T01:05:17;6.40;;;3.13;;
21905;SDS011;11117;48.644;9.006;2024-02-16T01:07:43;5.90;;;3.40;;
21905;SDS011;11117;48.644;9.006;2024-02-16T01:10:09;4.70;;;3.00;;
21905;SDS011;11117;48.644;9.006;2024-02-16T01:12:35;4.43;;;2.70;;
21905;SDS011;11117;48.644;9.006;2024-02-16T01:15:00;5.60;;;3.00;;
21905;SDS011;11117;48.644;9.006;2024-02-16T01:17:26;6.07;;;3.10;;
21905;SDS011;11117;48.644;9.006;2024-02-16T01:19:51;5.97;;;3.07;;
21905;SDS011;11117;48.644;9.006;2024-02-16T01:22:17;6.63;;;3.20;;
21905;SDS011;11117;48.644;9.006;2024-02-16T01:24:42;5.43;;;3.00;;
21905;SDS011;11117;48.644;9.006;2024-02-16T01:27:08;6.80;;;3.60;;
21905;SDS011;11117;48.644;9.006;2024-02-16T01:29:34;5.17;;;3.10;;
21905;SDS011;11117;48.644;9.006;2024-02-16T01:31:59;8.40;;;3.23;;
21905;SDS011;11117;48.644;9.006;2024-02-16T01:34:25;4.93;;;3.50;;
21905;SDS011;11117;48.644;9.006;2024-02-16T01:36:50;8.27;;;3.40;;
21905;SDS011;11117;48.644;9.006;2024-02-16T01:39:16;6.27;;;3.23;;
21905;SDS011;11117;48.644;9.006;2024-02-16T01:41:41;6.57;;;2.93;;
21905;SDS011;11117;48.644;9.006;2024-02-16T01:44:07;6.00;;;3.13;;
21905;SDS011;11117;48.644;9.006;2024-02-16T01:46:33;6.67;;;3.10;;
21905;SDS011;11117;48.644;9.006;2024-02-16T01:48:59;4.80;;;2.97;;
21905;SDS011;11117;48.644;9.006;2024-02-16T01:51:25;6.60;;;2.90;;
21905;SDS011;11117;48.644;9.006;2024-02-16T01:53:51;4.87;;;3.10;;
21905;SDS011;11117;48.644;9.006;2024-02-16T01:56:18;5.03;;;2.97;;
21905;SDS011;11117;48.644;9.006;2024-02-16T01:58:44;5.87;;;2.90;;
21905;SDS011;11117;48.644;9.006;2024-02-16T02:01:09;8.23;;;3.00;;
21905;SDS011;11117;48.644;9.006;2024-02-16T02:03:35;4.40;;;2.83;;
21905;SDS011;11117;48.644;9.006;2024-02-16T02:06:01;8.77;;;3.30;;
21905;SDS011;11117;48.644;9.006;2024-02-16T02:08:27;5.00;;;3.20;;
21905;SDS011;11117;48.644;9.006;2024-02-16T02:10:52;5.17;;;2.90;;
21905;SDS011;11117;48.644;9.006;2024-02-16T02:13:18;3.93;;;2.73;;
21905;SDS011;11117;48.644;9.006;2024-02-16T02:15:44;6.33;;;2.87;;
21905;SDS011;11117;48.644;9.006;2024-02-16T02:18:09;4.37;;;2.73;;
21905;SDS011;11117;48.644;9.006;2024-02-16T02:20:35;3.83;;;2.97;;
21905;SDS011;11117;48.644;9.006;2024-02-16T02:23:00;8.17;;;3.33;;
21905;SDS011;11117;48.644;9.006;2024-02-16T02:25:26;5.67;;;2.83;;
21905;SDS011;11117;48.644;9.006;2024-02-16T02:27:51;6.43;;;3.17;;
21905;SDS011;11117;48.644;9.006;2024-02-16T02:30:17;5.47;;;3.40;;
21905;SDS011;11117;48.644;9.006;2024-02-16T02:32:43;6.23;;;2.80;;
21905;SDS011;11117;48.644;9.006;2024-02-16T02:35:08;8.13;;;3.40;;
21905;SDS011;11117;48.644;9.006;2024-02-16T02:37:34;5.67;;;3.07;;
21905;SDS011;11117;48.644;9.006;2024-02-16T02:40:00;4.20;;;2.60;;
21905;SDS011;11117;48.644;9.006;2024-02-16T02:42:25;4.83;;;3.00;;
21905;SDS011;11117;48.644;9.006;2024-02-16T02:44:51;5.40;;;3.00;;
21905;SDS011;11117;48.644;9.006;2024-02-16T02:47:16;5.03;;;2.87;;
21905;SDS011;11117;48.644;9.006;2024-02-16T02:49:42;5.80;;;2.93;;
21905;SDS011;11117;48.644;9.006;2024-02-16T02:52:08;6.47;;;3.07;;
21905;SDS011;11117;48.644;9.006;2024-02-16T02:54:34;5.00;;;3.00;;
21905;SDS011;11117;48.644;9.006;2024-02-16T02:57:00;4.20;;;3.00;;
21905;SDS011;11117;48.644;9.006;2024-02-16T02:59:26;5.73;;;2.87;;
21905;SDS011;11117;48.644;9.006;2024-02-16T03:01:52;6.07;;;2.80;;
21905;SDS011;11117;48.644;9.006;2024-02-16T03:04:17;4.77;;;3.03;;
21905;SDS011;11117;48.644;9.006;2024-02-16T03:06:43;6.20;;;2.60;;
21905;SDS011;11117;48.644;9.006;2024-02-16T03:09:08;5.03;;;3.07;;
21905;SDS011;11117;48.644;9.006;2024-02-16T03:11:36;6.23;;;3.10;;
21905;SDS011;11117;48.644;9.006;2024-02-16T03:14:01;7.03;;;3.20;;
21905;SDS011;11117;48.644;9.006;2024-02-16T03:16:27;3.77;;;2.93;;
21905;SDS011;11117;48.644;9.006;2024-02-16T03:18:53;4.97;;;2.90;;
21905;SDS011;11117;48.644;9.006;2024-02-16T03:21:18;6.37;;;3.37;;
21905;SDS011;11117;48.644;9.006;2024-02-16T03:23:44;5.70;;;3.20;;
21905;SDS011;11117;48.644;9.006;2024-02-16T03:26:16;4.57;;;3.23;;
21905;SDS011;11117;48.644;9.006;2024-02-16T03:28:43;8.13;;;3.73;;
21905;SDS011;11117;48.644;9.006;2024-02-16T03:31:30;5.80;;;3.60;;
21905;SDS011;11117;48.644;9.006;2024-02-16T03:33:56;5.67;;;3.77;;
21905;SDS011;11117;48.644;9.006;2024-02-16T03:36:22;5.90;;;3.47;;
21905;SDS011;11117;48.644;9.006;2024-02-16T03:38:48;6.13;;;3.73;;
21905;SDS011;11117;48.644;9.006;2024-02-16T03:41:14;4.97;;;3.60;;
21905;SDS011;11117;48.644;9.006;2024-02-16T03:43:40;7.43;;;4.03;;
21905;SDS011;11117;48.644;9.006;2024-02-16T03:46:06;6.93;;;4.13;;
21905;SDS011;11117;48.644;9.006;2024-02-16T03:48:31;7.43;;;4.30;;
21905;SDS011;11117;48.644;9.006;2024-02-16T03:51:00;6.03;;;3.83;;
21905;SDS011;11117;48.644;9.006;2024-02-16T03:53:25;8.27;;;4.17;;
21905;SDS011;11117;48.644;9.006;2024-02-16T03:55:51;8.10;;;4.33;;
21905;SDS011;11117;48.644;9.006;2024-02-16T03:58:17;7.27;;;4.07;;
21905;SDS011;11117;48.644;9.006;2024-02-16T04:00:42;8.20;;;4.30;;
21905;SDS011;11117;48.644;9.006;2024-02-16T04:03:08;6.40;;;3.90;;
21905;SDS011;11117;48.644;9.006;2024-02-16T04:05:33;8.93;;;4.70;;
21905;SDS011;11117;48.644;9.006;2024-02-16T04:07:59;6.80;;;4.33;;
21905;SDS011;11117;48.644;9.006;2024-02-16T04:10:25;7.37;;;4.30;;
21905;SDS011;11117;48.644;9.006;2024-02-16T04:12:50;8.70;;;4.30;;
21905;SDS011;11117;48.644;9.006;2024-02-16T04:15:16;7.63;;;4.27;;
21905;SDS011;11117;48.644;9.006;2024-02-16T04:17:41;9.00;;;4.50;;
21905;SDS011;11117;48.644;9.006;2024-02-16T04:20:07;7.27;;;4.13;;
21905;SDS011;11117;48.644;9.006;2024-02-16T04:22:33;9.73;;;4.40;;
21905;SDS011;11117;48.644;9.006;2024-02-16T04:24:58;8.33;;;4.40;;
21905;SDS011;11117;48.644;9.006;2024-02-16T04:27:24;11.40;;;4.53;;
21905;SDS011;11117;48.644;9.006;2024-02-16T04:29:49;7.50;;;4.80;;
21905;SDS011;11117;48.644;9.006;2024-02-16T04:32:15;9.20;;;4.60;;
21905;SDS011;11117;48.644;9.006;2024-02-16T04:34:40;7.80;;;4.30;;
21905;SDS011;11117;48.644;9.006;2024-02-16T04:37:06;7.87;;;5.03;;
21905;SDS011;11117;48.644;9.006;2024-02-16T04:39:32;7.10;;;4.73;;
21905;SDS011;11117;48.644;9.006;2024-02-16T04:41:57;8.43;;;4.30;;
21905;SDS011;11117;48.644;9.006;2024-02-16T04:44:23;6.73;;;4.07;;
21905;SDS011;11117;48.644;9.006;2024-02-16T04:46:50;6.13;;;4.10;;
21905;SDS011;11117;48.644;9.006;2024-02-16T04:49:16;7.83;;;4.40;;
21905;SDS011;11117;48.644;9.006;2024-02-16T04:51:41;6.13;;;4.17;;
21905;SDS011;11117;48.644;9.006;2024-02-16T04:54:07;13.10;;;5.40;;
21905;SDS011;11117;48.644;9.006;2024-02-16T04:56:32;7.10;;;4.43;;
21905;SDS011;11117;48.644;9.006;2024-02-16T04:58:58;7.23;;;4.40;;
21905;SDS011;11117;48.644;9.006;2024-02-16T05:01:23;6.60;;;4.20;;
21905;SDS011;11117;48.644;9.006;2024-02-16T05:03:49;6.33;;;4.30;;
21905;SDS011;11117;48.644;9.006;2024-02-16T05:06:14;7.33;;;4.30;;
21905;SDS011;11117;48.644;9.006;2024-02-16T05:08:40;5.77;;;4.00;;
21905;SDS011;11117;48.644;9.006;2024-02-16T05:11:06;6.47;;;4.03;;
21905;SDS011;11117;48.644;9.006;2024-02-16T05:13:31;6.37;;;4.07;;
21905;SDS011;11117;48.644;9.006;2024-02-16T05:16:01;7.87;;;4.97;;
21905;SDS011;11117;48.644;9.006;2024-02-16T05:18:27;8.00;;;4.70;;
21905;SDS011;11117;48.644;9.006;2024-02-16T05:20:52;9.47;;;4.33;;
21905;SDS011;11117;48.644;9.006;2024-02-16T05:23:18;8.00;;;4.70;;
21905;SDS011;11117;48.644;9.006;2024-02-16T05:25:44;8.20;;;4.30;;
21905;SDS011;11117;48.644;9.006;2024-02-16T05:28:09;8.77;;;4.47;;
21905;SDS011;11117;48.644;9.006;2024-02-16T05:30:35;6.83;;;4.30;;
21905;SDS011;11117;48.644;9.006;2024-02-16T05:33:00;7.33;;;4.47;;
21905;SDS011;11117;48.644;9.006;2024-02-16T05:35:26;6.03;;;4.20;;
21905;SDS011;11117;48.644;9.006;2024-02-16T05:37:51;9.00;;;4.50;;
21905;SDS011;11117;48.644;9.006;2024-02-16T05:40:17;7.73;;;4.03;;
21905;SDS011;11117;48.644;9.006;2024-02-16T05:42:43;6.83;;;4.40;;
21905;SDS011;11117;48.644;9.006;2024-02-16T05:45:09;7.27;;;4.13;;
21905;SDS011;11117;48.644;9.006;2024-02-16T05:47:34;6.77;;;4.10;;
21905;SDS011;11117;48.644;9.006;2024-02-16T05:50:00;8.60;;;4.43;;
21905;SDS011;11117;48.644;9.006;2024-02-16T05:52:26;10.23;;;4.73;;
21905;SDS011;11117;48.644;9.006;2024-02-16T05:54:51;9.20;;;4.00;;
21905;SDS011;11117;48.644;9.006;2024-02-16T05:57:17;9.40;;;4.33;;
21905;SDS011;11117;48.644;9.006;2024-02-16T05:59:42;9.10;;;3.93;;
21905;SDS011;11117;48.644;9.006;2024-02-16T06:02:08;6.90;;;4.23;;
21905;SDS011;11117;48.644;9.006;2024-02-16T06:04:34;6.80;;;3.90;;
21905;SDS011;11117;48.644;9.006;2024-02-16T06:06:59;6.63;;;3.73;;
21905;SDS011;11117;48.644;9.006;2024-02-16T06:09:25;6.90;;;4.00;;
21905;SDS011;11117;48.644;9.006;2024-02-16T06:11:51;4.90;;;3.63;;
21905;SDS011;11117;48.644;9.006;2024-02-16T06:14:16;10.83;;;4.20;;
21905;SDS011;11117;48.644;9.006;2024-02-16T06:16:42;4.60;;;3.63;;
21905;SDS011;11117;48.644;9.006;2024-02-16T06:19:08;6.13;;;3.67;;
21905;SDS011;11117;48.644;9.006;2024-02-16T06:21:34;6.37;;;3.60;;
21905;SDS011;11117;48.644;9.006;2024-02-16T06:24:00;6.03;;;3.50;;
21905;SDS011;11117;48.644;9.006;2024-02-16T06:26:26;5.27;;;3.80;;
21905;SDS011;11117;48.644;9.006;2024-02-16T06:28:51;5.87;;;3.53;;
21905;SDS011;11117;48.644;9.006;2024-02-16T06:31:17;5.73;;;3.33;;
21905;SDS011;11117;48.644;9.006;2024-02-16T06:33:42;7.83;;;3.50;;
21905;SDS011;11117;48.644;9.006;2024-02-16T06:36:08;8.23;;;3.60;;
21905;SDS011;11117;48.644;9.006;2024-02-16T06:38:33;6.37;;;3.70;;
21905;SDS011;11117;48.644;9.006;2024-02-16T06:41:01;6.30;;;3.60;;
21905;SDS011;11117;48.644;9.006;2024-02-16T06:43:27;7.87;;;3.37;;
21905;SDS011;11117;48.644;9.006;2024-02-16T06:45:52;5.30;;;3.20;;
21905;SDS011;11117;48.644;9.006;2024-02-16T06:48:18;8.57;;;2.83;;
21905;SDS011;11117;48.644;9.006;2024-02-16T06:50:44;5.50;;;3.30;;
21905;SDS011;11117;48.644;9.006;2024-02-16T06:53:09;5.53;;;3.10;;
21905;SDS011;11117;48.644;9.006;2024-02-16T06:55:35;5.27;;;3.13;;
21905;SDS011;11117;48.644;9.006;2024-02-16T06:58:00;4.23;;;3.00;;
21905;SDS011;11117;48.644;9.006;2024-02-16T07:00:26;8.90;;;3.37;;
21905;SDS011;11117;48.644;9.006;2024-02-16T07:02:51;4.60;;;2.80;;
21905;SDS011;11117;48.644;9.006;2024-02-16T07:05:17;6.40;;;3.30;;
21905;SDS011;11117;48.644;9.006;2024-02-16T07:07:42;4.83;;;3.27;;
21905;SDS011;11117;48.644;9.006;2024-02-16T07:10:08;5.63;;;3.10;;
21905;SDS011;11117;48.644;9.006;2024-02-16T07:12:34;7.60;;;3.77;;
21905;SDS011;11117;48.644;9.006;2024-02-16T07:14:59;10.67;;;3.67;;
21905;SDS011;11117;48.644;9.006;2024-02-16T07:17:25;5.27;;;3.63;;
21905;SDS011;11117;48.644;9.006;2024-02-16T07:19:50;8.17;;;3.80;;
21905;SDS011;11117;48.644;9.006;2024-02-16T07:22:16;9.20;;;3.80;;
21905;SDS011;11117;48.644;9.006;2024-02-16T07:24:41;5.43;;;3.93;;
21905;SDS011;11117;48.644;9.006;2024-02-16T07:27:07;5.10;;;3.33;;
21905;SDS011;11117;48.644;9.006;2024-02-16T07:29:32;4.73;;;3.30;;
21905;SDS011;11117;48.644;9.006;2024-02-16T07:31:58;5.80;;;3.10;;
21905;SDS011;11117;48.644;9.006;2024-02-16T07:34:24;6.83;;;4.00;;
21905;SDS011;11117;48.644;9.006;2024-02-16T07:36:49;9.27;;;3.83;;
21905;SDS011;11117;48.644;9.006;2024-02-16T07:39:15;5.40;;;3.80;;
21905;SDS011;11117;48.644;9.006;2024-02-16T07:41:40;4.60;;;3.07;;
21905;SDS011;11117;48.644;9.006;2024-02-16T07:44:06;7.20;;;3.50;;
21905;SDS011;11117;48.644;9.006;2024-02-16T07:46:31;5.07;;;3.47;;
21905;SDS011;11117;48.644;9.006;2024-02-16T07:48:57;8.77;;;3.50;;
21905;SDS011;11117;48.644;9.006;2024-02-16T07:51:23;7.27;;;3.73;;
21905;SDS011;11117;48.644;9.006;2024-02-16T07:53:48;6.30;;;4.10;;
21905;SDS011;11117;48.644;9.006;2024-02-16T07:56:14;7.73;;;4.30;;
21905;SDS011;11117;48.644;9.006;2024-02-16T07:58:43;6.77;;;3.70;;
21905;SDS011;11117;48.644;9.006;2024-02-16T08:01:08;10.43;;;4.90;;
21905;SDS011;11117;48.644;9.006;2024-02-16T08:03:34;5.87;;;3.50;;
21905;SDS011;11117;48.644;9.006;2024-02-16T08:06:01;6.40;;;3.50;;
21905;SDS011;11117;48.644;9.006;2024-02-16T08:08:27;6.30;;;3.00;;
21905;SDS011;11117;48.644;9.006;2024-02-16T08:10:52;4.43;;;3.07;;
21905;SDS011;11117;48.644;9.006;2024-02-16T08:13:18;8.63;;;3.10;;
21905;SDS011;11117;48.644;9.006;2024-02-16T08:15:44;7.23;;;3.33;;
21905;SDS011;11117;48.644;9.006;2024-02-16T08:18:09;5.57;;;3.30;;
21905;SDS011;11117;48.644;9.006;2024-02-16T08:20:35;5.10;;;2.83;;
21905;SDS011;11117;48.644;9.006;2024-02-16T08:23:00;6.70;;;2.80;;
21905;SDS011;11117;48.644;9.006;2024-02-16T08:25:26;3.83;;;2.60;;
21905;SDS011;11117;48.644;9.006;2024-02-16T08:27:51;5.10;;;2.80;;
21905;SDS011;11117;48.644;9.006;2024-02-16T08:30:17;6.03;;;2.80;;
21905;SDS011;11117;48.644;9.006;2024-02-16T08:32:42;4.40;;;2.67;;
21905;SDS011;11117;48.644;9.006;2024-02-16T08:35:08;5.87;;;2.63;;
21905;SDS011;11117;48.644;9.006;2024-02-16T08:37:34;6.57;;;2.43;;
21905;SDS011;11117;48.644;9.006;2024-02-16T08:40:00;7.23;;;2.83;;
21905;SDS011;11117;48.644;9.006;2024-02-16T08:42:26;5.33;;;2.23;;
21905;SDS011;11117;48.644;9.006;2024-02-16T08:44:51;4.30;;;2.30;;
21905;SDS011;11117;48.644;9.006;2024-02-16T08:47:17;7.70;;;2.40;;
21905;SDS011;11117;48.644;9.006;2024-02-16T08:49:43;3.63;;;2.20;;
21905;SDS011;11117;48.644;9.006;2024-02-16T08:52:08;6.20;;;2.40;;
21905;SDS011;11117;48.644;9.006;2024-02-16T08:54:34;3.67;;;2.17;;
21905;SDS011;11117;48.644;9.006;2024-02-16T08:56:59;7.37;;;2.17;;
21905;SDS011;11117;48.644;9.006;2024-02-16T08:59:25;4.80;;;2.10;;
21905;SDS011;11117;48.644;9.006;2024-02-16T09:01:50;4.13;;;2.13;;
21905;SDS011;11117;48.644;9.006;2024-02-16T09:04:16;3.07;;;2.00;;
21905;SDS011;11117;48.644;9.006;2024-02-16T09:06:41;5.57;;;2.40;;
21905;SDS011;11117;48.644;9.006;2024-02-16T09:09:07;3.83;;;2.30;;
21905;SDS011;11117;48.644;9.006;2024-02-16T09:11:33;3.27;;;2.00;;
21905;SDS011;11117;48.644;9.006;2024-02-16T09:13:58;3.90;;;2.27;;
21905;SDS011;11117;48.644;9.006;2024-02-16T09:16:24;3.37;;;1.80;;
21905;SDS011;11117;48.644;9.006;2024-02-16T09:18:49;2.80;;;1.90;;
21905;SDS011;11117;48.644;9.006;2024-02-16T09:21:15;4.68;;;2.10;;
21905;SDS011;11117;48.644;9.006;2024-02-16T09:23:41;3.38;;;1.77;;
21905;SDS011;11117;48.644;9.006;2024-02-16T09:26:07;4.60;;;1.80;;
21905;SDS011;11117;48.644;9.006;2024-02-16T09:28:32;4.55;;;1.98;;
21905;SDS011;11117;48.644;9.006;2024-02-16T09:31:01;4.95;;;2.10;;
21905;SDS011;11117;48.644;9.006;2024-02-16T09:33:27;3.20;;;1.70;;
21905;SDS011;11117;48.644;9.006;2024-02-16T09:35:53;6.18;;;1.92;;
21905;SDS011;11117;48.644;9.006;2024-02-16T09:38:18;2.95;;;1.67;;
21905;SDS011;11117;48.644;9.006;2024-02-16T09:40:44;3.92;;;1.80;;
21905;SDS011;11117;48.644;9.006;2024-02-16T09:43:10;5.13;;;2.15;;
21905;SDS011;11117;48.644;9.006;2024-02-16T09:45:46;3.20;;;1.90;;
21905;SDS011;11117;48.644;9.006;2024-02-16T09:48:12;4.53;;;1.67;;
21905;SDS011;11117;48.644;9.006;2024-02-16T09:50:39;4.15;;;2.25;;
21905;SDS011;11117;48.644;9.006;2024-02-16T09:53:04;4.93;;;2.20;;
21905;SDS011;11117;48.644;9.006;2024-02-16T09:55:31;5.75;;;1.77;;
21905;SDS011;11117;48.644;9.006;2024-02-16T09:57:58;5.82;;;2.03;;
21905;SDS011;11117;48.644;9.006;2024-02-16T10:00:24;4.50;;;2.33;;
21905;SDS011;11117;48.644;9.006;2024-02-16T10:02:49;4.80;;;1.80;;
21905;SDS011;11117;48.644;9.006;2024-02-16T10:05:16;2.75;;;1.85;;
21905;SDS011;11117;48.644;9.006;2024-02-16T10:07:45;5.38;;;2.00;;
21905;SDS011;11117;48.644;9.006;2024-02-16T10:10:25;7.05;;;2.20;;
21905;SDS011;11117;48.644;9.006;2024-02-16T10:13:01;4.22;;;1.90;;
21905;SDS011;11117;48.644;9.006;2024-02-16T10:15:27;4.82;;;2.00;;
21905;SDS011;11117;48.644;9.006;2024-02-16T10:17:59;2.58;;;1.80;;
21905;SDS011;11117;48.644;9.006;2024-02-16T10:20:25;3.63;;;2.10;;
21905;SDS011;11117;48.644;9.006;2024-02-16T10:23:07;5.47;;;2.00;;
21905;SDS011;11117;48.644;9.006;2024-02-16T10:25:34;5.28;;;2.15;;
21905;SDS011;11117;48.644;9.006;2024-02-16T10:28:03;6.07;;;2.40;;
21905;SDS011;11117;48.644;9.006;2024-02-16T10:30:30;3.88;;;2.10;;
21905;SDS011;11117;48.644;9.006;2024-02-16T10:32:59;7.38;;;2.80;;
21905;SDS011;11117;48.644;9.006;2024-02-16T10:35:25;6.38;;;2.47;;
21905;SDS011;11117;48.644;9.006;2024-02-16T10:37:52;3.70;;;1.92;;
21905;SDS011;11117;48.644;9.006;2024-02-16T10:40:18;3.80;;;1.90;;
21905;SDS011;11117;48.644;9.006;2024-02-16T10:42:45;5.72;;;2.45;;
21905;SDS011;11117;48.644;9.006;2024-02-16T10:45:14;4.20;;;2.20;;
21905;SDS011;11117;48.644;9.006;2024-02-16T10:47:40;7.40;;;2.58;;
21905;SDS011;11117;48.644;9.006;2024-02-16T10:50:06;5.85;;;2.45;;
21905;SDS011;11117;48.644;9.006;2024-02-16T10:52:32;5.50;;;2.83;;
21905;SDS011;11117;48.644;9.006;2024-02-16T10:54:59;4.47;;;2.38;;
21905;SDS011;11117;48.644;9.006;2024-02-16T10:57:25;7.95;;;2.53;;
21905;SDS011;11117;48.644;9.006;2024-02-16T10:59:52;7.90;;;2.50;;
21905;SDS011;11117;48.644;9.006;2024-02-16T11:02:18;8.68;;;2.70;;
21905;SDS011;11117;48.644;9.006;2024-02-16T11:04:45;5.50;;;3.00;;
21905;SDS011;11117;48.644;9.006;2024-02-16T11:07:12;7.88;;;3.20;;
21905;SDS011;11117;48.644;9.006;2024-02-16T11:09:40;9.88;;;3.10;;
21905;SDS011;11117;48.644;9.006;2024-02-16T11:12:07;7.05;;;2.65;;
21905;SDS011;11117;48.644;9.006;2024-02-16T11:14:36;3.88;;;2.40;;
21905;SDS011;11117;48.644;9.006;2024-02-16T11:19:35;5.43;;;2.45;;
21905;SDS011;11117;48.644;9.006;2024-02-16T11:22:04;8.95;;;2.75;;
21905;SDS011;11117;48.644;9.006;2024-02-16T11:24:31;6.25;;;2.78;;
21905;SDS011;11117;48.644;9.006;2024-02-16T11:26:57;5.20;;;2.65;;
21905;SDS011;11117;48.644;9.006;2024-02-16T11:29:23;7.25;;;1.98;;
21905;SDS011;11117;48.644;9.006;2024-02-16T11:31:50;7.90;;;2.28;;
21905;SDS011;11117;48.644;9.006;2024-02-16T11:34:22;4.85;;;2.00;;
21905;SDS011;11117;48.644;9.006;2024-02-16T11:36:48;6.03;;;2.17;;
21905;SDS011;11117;48.644;9.006;2024-02-16T11:39:14;7.57;;;2.42;;
21905;SDS011;11117;48.644;9.006;2024-02-16T11:41:39;8.23;;;2.28;;
21905;SDS011;11117;48.644;9.006;2024-02-16T11:44:05;6.63;;;2.08;;
21905;SDS011;11117;48.644;9.006;2024-02-16T11:46:30;5.30;;;1.98;;
21905;SDS011;11117;48.644;9.006;2024-02-16T11:49:04;6.20;;;1.90;;
21905;SDS011;11117;48.644;9.006;2024-02-16T11:51:32;5.97;;;1.83;;
21905;SDS011;11117;48.644;9.006;2024-02-16T11:53:58;8.82;;;2.20;;
21905;SDS011;11117;48.644;9.006;2024-02-16T11:56:24;9.35;;;2.15;;
21905;SDS011;11117;48.644;9.006;2024-02-16T11:58:51;3.40;;;1.65;;
21905;SDS011;11117;48.644;9.006;2024-02-16T12:01:17;7.55;;;1.83;;
21905;SDS011;11117;48.644;9.006;2024-02-16T12:03:43;8.55;;;1.83;;
21905;SDS011;11117;48.644;9.006;2024-02-16T12:06:09;8.63;;;1.92;;
21905;SDS011;11117;48.644;9.006;2024-02-16T12:08:44;6.38;;;2.00;;
21905;SDS011;11117;48.644;9.006;2024-02-16T12:11:09;5.50;;;1.90;;
21905;SDS011;11117;48.644;9.006;2024-02-16T12:13:35;6.43;;;1.92;;
21905;SDS011;11117;48.644;9.006;2024-02-16T12:16:01;5.95;;;1.80;;
21905;SDS011;11117;48.644;9.006;2024-02-16T12:18:27;5.72;;;1.70;;
21905;SDS011;11117;48.644;9.006;2024-02-16T12:21:05;5.28;;;2.13;;
21905;SDS011;11117;48.644;9.006;2024-02-16T12:23:32;5.75;;;1.90;;
21905;SDS011;11117;48.644;9.006;2024-02-16T12:26:02;5.03;;;2.00;;
21905;SDS011;11117;48.644;9.006;2024-02-16T12:28:28;7.28;;;2.00;;
21905;SDS011;11117;48.644;9.006;2024-02-16T12:30:55;5.78;;;2.05;;
21905;SDS011;11117;48.644;9.006;2024-02-16T12:33:24;4.88;;;1.80;;
21905;SDS011;11117;48.644;9.006;2024-02-16T12:35:50;7.80;;;2.05;;
21905;SDS011;11117;48.644;9.006;2024-02-16T12:38:16;5.30;;;2.00;;
21905;SDS011;11117;48.644;9.006;2024-02-16T12:40:41;4.80;;;2.05;;
21905;SDS011;11117;48.644;9.006;2024-02-16T12:43:07;5.10;;;1.98;;
21905;SDS011;11117;48.644;9.006;2024-02-16T12:45:33;4.93;;;2.33;;
21905;SDS011;11117;48.644;9.006;2024-02-16T12:47:58;7.38;;;1.95;;
21905;SDS011;11117;48.644;9.006;2024-02-16T12:50:24;5.95;;;2.08;;
21905;SDS011;11117;48.644;9.006;2024-02-16T12:52:49;5.15;;;2.00;;
21905;SDS011;11117;48.644;9.006;2024-02-16T12:55:15;7.95;;;2.28;;
21905;SDS011;11117;48.644;9.006;2024-02-16T12:57:42;4.53;;;2.00;;
21905;SDS011;11117;48.644;9.006;2024-02-16T13:00:07;7.30;;;2.08;;
21905;SDS011;11117;48.644;9.006;2024-02-16T13:02:33;3.40;;;2.20;;
21905;SDS011;11117;48.644;9.006;2024-02-16T13:04:59;4.65;;;2.17;;
21905;SDS011;11117;48.644;9.006;2024-02-16T13:07:25;7.15;;;2.38;;
21905;SDS011;11117;48.644;9.006;2024-02-16T13:09:50;5.90;;;2.30;;
21905;SDS011;11117;48.644;9.006;2024-02-16T13:12:16;4.75;;;2.10;;
21905;SDS011;11117;48.644;9.006;2024-02-16T13:14:42;5.15;;;1.90;;
21905;SDS011;11117;48.644;9.006;2024-02-16T13:17:07;4.40;;;2.17;;
21905;SDS011;11117;48.644;9.006;2024-02-16T13:19:33;3.70;;;2.10;;
21905;SDS011;11117;48.644;9.006;2024-02-16T13:21:58;9.48;;;2.28;;
21905;SDS011;11117;48.644;9.006;2024-02-16T13:24:24;7.07;;;2.40;;
21905;SDS011;11117;48.644;9.006;2024-02-16T13:26:50;7.55;;;2.22;;
21905;SDS011;11117;48.644;9.006;2024-02-16T13:29:15;7.13;;;2.35;;
21905;SDS011;11117;48.644;9.006;2024-02-16T13:31:41;6.63;;;2.75;;
21905;SDS011;11117;48.644;9.006;2024-02-16T13:34:06;4.40;;;2.40;;
21905;SDS011;11117;48.644;9.006;2024-02-16T13:36:32;8.68;;;2.80;;
21905;SDS011;11117;48.644;9.006;2024-02-16T13:38:57;9.90;;;2.40;;
21905;SDS011;11117;48.644;9.006;2024-02-16T13:41:23;6.35;;;2.50;;
21905;SDS011;11117;48.644;9.006;2024-02-16T13:43:49;7.95;;;3.22;;
21905;SDS011;11117;48.644;9.006;2024-02-16T13:46:15;10.90;;;3.80;;
21905;SDS011;11117;48.644;9.006;2024-02-16T13:48:41;7.45;;;3.10;;
21905;SDS011;11117;48.644;9.006;2024-02-16T13:51:06;6.53;;;3.10;;
21905;SDS011;11117;48.644;9.006;2024-02-16T13:53:32;7.90;;;2.67;;
21905;SDS011;11117;48.644;9.006;2024-02-16T13:56:01;8.90;;;2.40;;
21905;SDS011;11117;48.644;9.006;2024-02-16T13:58:27;7.70;;;2.28;;
21905;SDS011;11117;48.644;9.006;2024-02-16T14:00:52;6.53;;;2.35;;
21905;SDS011;11117;48.644;9.006;2024-02-16T14:03:18;9.68;;;2.28;;
21905;SDS011;11117;48.644;9.006;2024-02-16T14:05:44;10.15;;;2.47;;
21905;SDS011;11117;48.644;9.006;2024-02-16T14:08:11;19.75;;;10.05;;
21905;SDS011;11117;48.644;9.006;2024-02-16T14:10:37;10.35;;;2.22;;
21905;SDS011;11117;48.644;9.006;2024-02-16T14:13:03;7.13;;;2.35;;
21905;SDS011;11117;48.644;9.006;2024-02-16T14:15:29;11.05;;;2.35;;
21905;SDS011;11117;48.644;9.006;2024-02-16T14:17:54;6.85;;;2.20;;
21905;SDS011;11117;48.644;9.006;2024-02-16T14:20:20;6.22;;;2.05;;
21905;SDS011;11117;48.644;9.006;2024-02-16T14:22:45;11.02;;;2.20;;
21905;SDS011;11117;48.644;9.006;2024-02-16T14:25:11;10.32;;;2.78;;
21905;SDS011;11117;48.644;9.006;2024-02-16T14:27:36;8.30;;;2.78;;
21905;SDS011;11117;48.644;9.006;2024-02-16T14:30:02;9.57;;;2.67;;
21905;SDS011;11117;48.644;9.006;2024-02-16T14:32:28;6.82;;;2.13;;
21905;SDS011;11117;48.644;9.006;2024-02-16T14:34:54;7.20;;;2.38;;
21905;SDS011;11117;48.644;9.006;2024-02-16T14:37:19;13.75;;;2.38;;
21905;SDS011;11117;48.644;9.006;2024-02-16T14:39:45;7.03;;;1.92;;
21905;SDS011;11117;48.644;9.006;2024-02-16T14:42:10;9.43;;;2.15;;
21905;SDS011;11117;48.644;9.006;2024-02-16T14:44:36;5.75;;;1.90;;